createdAt,value
2022-11-27T00:01:11.666Z,28.93
2022-11-27T00:03:39.953Z,27.23
2022-11-27T00:06:07.937Z,27.73
2022-11-27T00:08:34.558Z,25.47
2022-11-27T00:11:09.683Z,27.53
2022-11-27T00:13:36.467Z,26.07
2022-11-27T00:16:04.576Z,25.03
2022-11-27T00:18:31.365Z,24.13
2022-11-27T00:21:04.072Z,22.20
2022-11-27T00:23:30.719Z,26.67
2022-11-27T00:25:57.303Z,29.93
2022-11-27T00:28:23.898Z,26.27
2022-11-27T00:30:50.499Z,22.07
2022-11-27T00:33:17.261Z,23.43
2022-11-27T00:35:43.967Z,23.60
2022-11-27T00:38:10.542Z,22.67
2022-11-27T00:40:37.117Z,20.70
2022-11-27T00:43:03.761Z,25.13
2022-11-27T00:45:30.327Z,24.70
2022-11-27T00:47:56.907Z,28.20
2022-11-27T00:50:23.531Z,24.27
2022-11-27T00:52:50.117Z,25.23
2022-11-27T00:55:16.800Z,21.60
2022-11-27T00:57:43.421Z,23.47
2022-11-27T01:00:10.623Z,22.83
2022-11-27T01:02:37.221Z,23.23
2022-11-27T01:05:04.014Z,17.43
2022-11-27T01:07:30.619Z,18.87
2022-11-27T01:09:57.224Z,21.10
2022-11-27T01:12:23.816Z,24.57
2022-11-27T01:14:50.490Z,20.43
2022-11-27T01:17:18.287Z,23.10
2022-11-27T01:19:45.019Z,23.13
2022-11-27T01:22:11.606Z,18.80
2022-11-27T01:24:38.598Z,20.47
2022-11-27T01:27:05.513Z,21.83
2022-11-27T01:29:32.091Z,19.83
2022-11-27T01:31:58.670Z,22.73
2022-11-27T01:34:25.252Z,19.63
2022-11-27T01:36:51.823Z,22.50
2022-11-27T01:39:20.547Z,18.83
2022-11-27T01:41:48.130Z,21.70
2022-11-27T01:44:23.853Z,21.03
2022-11-27T01:46:52.985Z,21.80
2022-11-27T01:49:28.913Z,19.40
2022-11-27T01:52:19.823Z,18.70
2022-11-27T01:55:05.317Z,18.53
2022-11-27T01:57:39.815Z,19.83
2022-11-27T02:00:09.248Z,17.90
2022-11-27T02:02:43.037Z,17.77
2022-11-27T02:05:14.392Z,18.77
2022-11-27T02:07:41.414Z,14.40
2022-11-27T02:10:08.408Z,19.07
2022-11-27T02:12:40.953Z,21.27
2022-11-27T02:15:14.462Z,16.93
2022-11-27T02:18:06.944Z,18.77
2022-11-27T02:21:09.474Z,20.40
2022-11-27T02:24:20.879Z,14.77
2022-11-27T02:26:58.471Z,18.67
2022-11-27T02:29:27.606Z,21.03
2022-11-27T02:31:58.948Z,20.20
2022-11-27T02:34:39.235Z,16.40
2022-11-27T02:37:33.562Z,16.87
2022-11-27T02:40:06.839Z,21.80
2022-11-27T02:42:40.876Z,17.27
2022-11-27T02:45:14.272Z,17.33
2022-11-27T02:47:44.539Z,17.93
2022-11-27T02:50:16.422Z,14.87
2022-11-27T02:52:44.260Z,16.10
2022-11-27T02:55:16.001Z,18.03
2022-11-27T02:57:44.047Z,13.90
2022-11-27T03:00:11.808Z,20.83
2022-11-27T03:02:49.644Z,18.00
2022-11-27T03:05:20.427Z,15.80
2022-11-27T03:07:54.044Z,17.77
2022-11-27T03:10:34.093Z,15.23
2022-11-27T03:13:02.619Z,18.33
2022-11-27T03:15:46.241Z,15.67
2022-11-27T03:18:25.670Z,15.03
2022-11-27T03:21:00.998Z,17.30
2022-11-27T03:23:28.163Z,16.47
2022-11-27T03:25:54.775Z,15.67
2022-11-27T03:28:21.952Z,15.13
2022-11-27T03:30:48.709Z,16.77
2022-11-27T03:33:15.531Z,11.30
2022-11-27T03:35:42.116Z,15.67
2022-11-27T03:38:08.778Z,17.73
2022-11-27T03:40:56.970Z,14.07
2022-11-27T03:43:30.415Z,15.53
2022-11-27T03:46:07.353Z,16.80
2022-11-27T03:48:48.582Z,13.13
2022-11-27T03:51:32.928Z,14.13
2022-11-27T03:54:07.266Z,16.60
2022-11-27T03:56:56.121Z,19.63
2022-11-27T03:59:25.321Z,17.03
2022-11-27T04:01:52.089Z,14.20
2022-11-27T04:04:18.910Z,16.37
2022-11-27T04:06:45.626Z,16.07
2022-11-27T04:09:12.203Z,14.63
2022-11-27T04:11:38.791Z,13.27
2022-11-27T04:14:05.806Z,19.20
2022-11-27T04:16:32.467Z,16.00
2022-11-27T04:18:59.174Z,14.77
2022-11-27T04:21:25.838Z,15.77
2022-11-27T04:23:52.423Z,12.97
2022-11-27T04:26:19.022Z,15.30
2022-11-27T04:28:45.589Z,14.23
2022-11-27T04:31:12.311Z,13.77
2022-11-27T04:33:38.934Z,14.17
2022-11-27T04:36:05.996Z,15.17
2022-11-27T04:38:32.579Z,14.93
2022-11-27T04:40:59.174Z,16.07
2022-11-27T04:43:25.794Z,15.00
2022-11-27T04:45:52.378Z,11.37
2022-11-27T04:48:18.973Z,16.77
2022-11-27T04:50:45.995Z,18.27
2022-11-27T04:53:12.723Z,12.17
2022-11-27T04:55:39.294Z,14.80
2022-11-27T04:58:05.942Z,14.07
2022-11-27T05:00:32.783Z,14.53
2022-11-27T05:02:59.548Z,12.33
2022-11-27T05:05:36.348Z,15.43
2022-11-27T05:08:03.034Z,15.57
2022-11-27T05:10:29.673Z,12.87
2022-11-27T05:12:56.257Z,14.53
2022-11-27T05:15:22.892Z,15.30
2022-11-27T05:17:49.519Z,15.97
2022-11-27T05:20:16.326Z,15.43
2022-11-27T05:22:44.134Z,18.33
2022-11-27T05:25:10.780Z,18.57
2022-11-27T05:27:37.442Z,13.60
2022-11-27T05:30:04.376Z,16.47
2022-11-27T05:32:30.979Z,17.00
2022-11-27T05:34:57.540Z,18.47
2022-11-27T05:37:24.801Z,17.77
2022-11-27T05:39:51.375Z,18.37
2022-11-27T05:42:18.053Z,16.03
2022-11-27T05:44:44.844Z,16.97
2022-11-27T05:47:11.437Z,16.47
2022-11-27T05:49:39.104Z,19.10
2022-11-27T05:52:05.743Z,17.90
2022-11-27T05:54:32.310Z,14.23
2022-11-27T05:56:58.897Z,18.03
2022-11-27T05:59:25.477Z,17.10
2022-11-27T06:01:52.269Z,16.73
2022-11-27T06:04:19.269Z,17.70
2022-11-27T06:06:45.869Z,16.17
2022-11-27T06:09:13.724Z,14.83
2022-11-27T06:11:41.427Z,16.63
2022-11-27T06:14:11.338Z,16.63
2022-11-27T06:16:38.224Z,19.03
2022-11-27T06:19:04.884Z,17.13
2022-11-27T06:21:31.481Z,14.50
2022-11-27T06:23:58.187Z,15.20
2022-11-27T06:26:28.151Z,17.97
2022-11-27T06:28:56.783Z,13.73
2022-11-27T06:31:26.301Z,16.33
2022-11-27T06:33:55.381Z,15.93
2022-11-27T06:36:28.489Z,14.47
2022-11-27T06:38:55.470Z,14.70
2022-11-27T06:41:24.530Z,14.90
2022-11-27T06:43:51.251Z,15.47
2022-11-27T06:46:20.391Z,16.17
2022-11-27T06:48:49.042Z,14.93
2022-11-27T06:51:18.519Z,15.83
2022-11-27T06:53:45.305Z,14.63
2022-11-27T06:56:14.151Z,14.83
2022-11-27T06:58:41.675Z,16.50
2022-11-27T07:01:11.891Z,20.20
2022-11-27T07:03:39.095Z,14.60
2022-11-27T07:06:08.488Z,14.70
2022-11-27T07:08:35.688Z,16.17
2022-11-27T07:11:07.491Z,16.70
2022-11-27T07:13:34.243Z,17.77
2022-11-27T07:16:05.413Z,18.27
2022-11-27T07:18:36.824Z,14.17
2022-11-27T07:21:03.607Z,16.07
2022-11-27T07:23:30.183Z,14.43
2022-11-27T07:25:56.904Z,14.30
2022-11-27T07:28:23.657Z,15.40
2022-11-27T07:30:59.825Z,15.53
2022-11-27T07:33:26.865Z,17.60
2022-11-27T07:36:10.566Z,15.00
2022-11-27T07:38:37.143Z,14.30
2022-11-27T07:41:04.875Z,15.77
2022-11-27T07:43:32.984Z,13.70
2022-11-27T07:46:04.384Z,14.60
2022-11-27T07:48:31.547Z,15.63
2022-11-27T07:50:58.445Z,13.37
2022-11-27T07:53:25.044Z,14.43
2022-11-27T07:55:51.633Z,14.20
2022-11-27T07:58:18.239Z,17.67
2022-11-27T08:00:44.936Z,15.40
2022-11-27T08:03:11.595Z,16.33
2022-11-27T08:05:38.183Z,12.37
2022-11-27T08:08:05.159Z,15.83
2022-11-27T08:10:35.266Z,12.80
2022-11-27T08:13:02.022Z,15.33
2022-11-27T08:15:28.640Z,14.43
2022-11-27T08:17:55.245Z,13.93
2022-11-27T08:20:21.952Z,13.23
2022-11-27T08:22:48.879Z,14.13
2022-11-27T08:25:15.847Z,15.67
2022-11-27T08:27:42.907Z,15.47
2022-11-27T08:30:10.220Z,11.30
2022-11-27T08:32:40.860Z,13.60
2022-11-27T08:35:08.203Z,14.53
2022-11-27T08:37:35.474Z,14.83
2022-11-27T08:40:02.578Z,13.83
2022-11-27T08:42:29.852Z,13.33
2022-11-27T08:44:56.538Z,13.40
2022-11-27T08:47:23.291Z,13.43
2022-11-27T08:49:50.161Z,11.90
2022-11-27T08:52:16.942Z,14.17
2022-11-27T08:54:43.607Z,12.57
2022-11-27T08:57:10.278Z,15.97
2022-11-27T08:59:36.871Z,12.40
2022-11-27T09:02:03.466Z,11.43
2022-11-27T09:04:30.136Z,11.13
2022-11-27T09:06:58.729Z,12.70
2022-11-27T09:09:25.577Z,14.43
2022-11-27T09:11:54.624Z,14.67
2022-11-27T09:14:21.259Z,13.47
2022-11-27T09:16:48.037Z,16.13
2022-11-27T09:19:14.843Z,10.70
2022-11-27T09:21:41.464Z,10.10
2022-11-27T09:24:09.431Z,12.63
2022-11-27T09:26:36.071Z,13.10
2022-11-27T09:29:02.728Z,11.93
2022-11-27T09:31:29.498Z,10.23
2022-11-27T09:33:58.343Z,12.90
2022-11-27T09:36:26.046Z,11.70
2022-11-27T09:38:53.680Z,13.57
2022-11-27T09:41:35.871Z,12.03
2022-11-27T09:44:23.423Z,13.83
2022-11-27T09:46:51.190Z,14.23
2022-11-27T09:49:25.528Z,13.00
2022-11-27T09:52:05.450Z,11.00
2022-11-27T09:54:57.676Z,13.27
2022-11-27T09:57:32.163Z,9.33
2022-11-27T10:00:03.228Z,11.07
2022-11-27T10:02:33.720Z,11.50
2022-11-27T10:05:13.734Z,11.87
2022-11-27T10:08:11.883Z,13.90
2022-11-27T10:10:46.857Z,10.83
2022-11-27T10:13:47.369Z,10.13
2022-11-27T10:16:20.234Z,13.27
2022-11-27T10:18:53.473Z,11.93
2022-11-27T10:21:45.496Z,11.93
2022-11-27T10:24:42.493Z,11.83
2022-11-27T10:27:34.184Z,13.57
2022-11-27T10:30:03.517Z,10.27
2022-11-27T10:32:54.747Z,14.23
2022-11-27T10:35:22.260Z,11.77
2022-11-27T10:38:07.166Z,13.60
2022-11-27T10:41:05.158Z,15.13
2022-11-27T10:43:32.200Z,14.40
2022-11-27T10:46:10.154Z,12.00
2022-11-27T10:48:36.959Z,11.53
2022-11-27T10:51:03.752Z,9.77
2022-11-27T10:53:38.282Z,12.27
2022-11-27T10:56:15.429Z,11.40
2022-11-27T10:58:56.040Z,11.63
2022-11-27T11:01:24.421Z,10.50
2022-11-27T11:04:14.227Z,10.30
2022-11-27T11:06:50.801Z,10.60
2022-11-27T11:09:22.790Z,12.20
2022-11-27T11:11:49.459Z,11.10
2022-11-27T11:14:24.413Z,11.63
2022-11-27T11:16:52.986Z,12.83
2022-11-27T11:19:33.420Z,11.10
2022-11-27T11:22:04.381Z,14.07
2022-11-27T11:24:33.500Z,11.93
2022-11-27T11:27:04.391Z,12.63
2022-11-27T11:29:36.076Z,11.47
2022-11-27T11:32:10.843Z,12.83
2022-11-27T11:34:56.220Z,10.90
2022-11-27T11:37:27.514Z,11.47
2022-11-27T11:40:16.180Z,11.40
2022-11-27T11:42:58.729Z,9.17
2022-11-27T11:45:30.011Z,10.93
2022-11-27T11:48:23.992Z,11.50
2022-11-27T11:50:57.714Z,11.97
2022-11-27T11:53:45.401Z,12.40
2022-11-27T11:56:29.243Z,11.40
2022-11-27T11:59:10.514Z,12.57
2022-11-27T12:02:04.214Z,10.07
2022-11-27T12:05:02.782Z,10.83
2022-11-27T12:07:52.412Z,12.63
2022-11-27T12:10:33.044Z,10.80
2022-11-27T12:13:04.558Z,10.67
2022-11-27T12:15:39.464Z,10.20
2022-11-27T12:18:18.224Z,10.40
2022-11-27T12:21:17.749Z,13.97
2022-11-27T12:24:19.582Z,12.40
2022-11-27T12:26:52.859Z,7.93
2022-11-27T12:29:57.105Z,8.47
2022-11-27T12:33:00.719Z,11.13
2022-11-27T12:35:43.125Z,9.73
2022-11-27T12:38:15.186Z,11.53
2022-11-27T12:41:02.187Z,8.13
2022-11-27T12:43:36.007Z,10.20
2022-11-27T12:46:46.816Z,10.77
2022-11-27T12:49:27.720Z,11.97
2022-11-27T12:52:12.895Z,10.50
2022-11-27T12:54:50.633Z,10.67
2022-11-27T12:57:27.246Z,10.03
2022-11-27T12:59:55.525Z,11.33
2022-11-27T13:02:38.221Z,9.73
2022-11-27T13:05:09.054Z,10.33
2022-11-27T13:07:48.196Z,11.47
2022-11-27T13:10:26.876Z,9.67
2022-11-27T13:13:09.532Z,9.33
2022-11-27T13:15:57.658Z,9.60
2022-11-27T13:18:33.596Z,11.20
2022-11-27T13:21:04.200Z,12.57
2022-11-27T13:23:32.428Z,9.67
2022-11-27T13:26:05.973Z,11.00
2022-11-27T13:28:42.579Z,12.00
2022-11-27T13:31:20.201Z,13.10
2022-11-27T13:33:47.432Z,11.07
2022-11-27T13:36:39.334Z,10.10
2022-11-27T13:39:06.939Z,10.60
2022-11-27T13:41:43.664Z,9.50
2022-11-27T13:44:28.597Z,10.00
2022-11-27T13:47:00.159Z,11.23
2022-11-27T13:49:37.907Z,9.07
2022-11-27T13:52:14.334Z,12.80
2022-11-27T13:54:53.955Z,8.43
2022-11-27T13:57:21.983Z,9.57
2022-11-27T14:00:10.110Z,11.27
2022-11-27T14:02:47.563Z,10.93
2022-11-27T14:05:17.227Z,14.30
2022-11-27T14:07:48.240Z,11.10
2022-11-27T14:10:26.818Z,16.13
2022-11-27T14:13:08.248Z,11.87
2022-11-27T14:15:37.291Z,30.23
2022-11-27T14:18:10.194Z,11.77
2022-11-27T14:20:47.730Z,14.20
2022-11-27T14:23:14.497Z,10.03
2022-11-27T14:25:41.535Z,13.37
2022-11-27T14:28:21.803Z,10.53
2022-11-27T14:30:57.137Z,11.77
2022-11-27T14:33:33.163Z,10.53
2022-11-27T14:36:22.236Z,9.03
2022-11-27T14:38:50.151Z,9.97
2022-11-27T14:41:23.461Z,9.60
2022-11-27T14:44:04.368Z,8.40
2022-11-27T14:46:33.930Z,7.73
2022-11-27T14:49:01.029Z,10.87
2022-11-27T14:51:30.701Z,12.37
2022-11-27T14:54:01.162Z,9.97
2022-11-27T14:56:37.079Z,13.67
2022-11-27T14:59:04.303Z,9.53
2022-11-27T15:01:36.502Z,8.33
2022-11-27T15:04:05.914Z,9.07
2022-11-27T15:06:37.571Z,10.77
2022-11-27T15:09:30.282Z,11.23
2022-11-27T15:11:56.784Z,10.97
2022-11-27T15:14:26.768Z,11.73
2022-11-27T15:16:54.253Z,9.33
2022-11-27T15:19:32.709Z,8.93
2022-11-27T15:21:59.755Z,10.07
2022-11-27T15:24:29.465Z,9.03
2022-11-27T15:27:15.516Z,11.67
2022-11-27T15:30:01.894Z,8.37
2022-11-27T15:32:45.660Z,11.23
2022-11-27T15:35:15.109Z,10.63
2022-11-27T15:37:42.184Z,11.57
2022-11-27T15:40:38.577Z,10.43
2022-11-27T15:43:16.063Z,10.77
2022-11-27T15:45:44.219Z,9.80
2022-11-27T15:48:16.698Z,9.43
2022-11-27T15:50:48.378Z,9.20
2022-11-27T15:53:18.296Z,9.47
2022-11-27T15:55:44.997Z,8.93
2022-11-27T15:58:11.658Z,11.23
2022-11-27T16:00:39.635Z,10.63
2022-11-27T16:03:06.346Z,9.70
2022-11-27T16:05:32.954Z,9.47
2022-11-27T16:08:00.801Z,9.80
2022-11-27T16:10:27.560Z,11.00
2022-11-27T16:12:59.240Z,12.90
2022-11-27T16:15:28.818Z,11.13
2022-11-27T16:17:59.416Z,10.47
2022-11-27T16:20:27.043Z,10.40
2022-11-27T16:22:54.036Z,7.97
2022-11-27T16:25:20.698Z,9.47
2022-11-27T16:27:47.393Z,13.87
2022-11-27T16:30:14.189Z,10.03
2022-11-27T16:32:41.741Z,12.10
2022-11-27T16:35:08.587Z,8.43
2022-11-27T16:37:35.578Z,9.83
2022-11-27T16:40:03.472Z,7.97
2022-11-27T16:42:30.145Z,9.97
2022-11-27T16:44:57.199Z,8.73
2022-11-27T16:47:23.811Z,9.90
2022-11-27T16:49:50.626Z,10.53
2022-11-27T16:52:17.518Z,8.73
2022-11-27T16:54:44.381Z,10.77
2022-11-27T16:57:11.125Z,10.53
2022-11-27T16:59:38.296Z,8.10
2022-11-27T17:02:10.564Z,10.53
2022-11-27T17:04:37.209Z,12.70
2022-11-27T17:07:06.580Z,9.20
2022-11-27T17:09:33.225Z,10.63
2022-11-27T17:11:59.837Z,8.40
2022-11-27T17:14:27.524Z,10.37
2022-11-27T17:16:54.239Z,9.37
2022-11-27T17:19:23.958Z,13.07
2022-11-27T17:21:50.800Z,11.43
2022-11-27T17:24:17.651Z,10.43
2022-11-27T17:26:46.477Z,13.07
2022-11-27T17:29:15.365Z,11.60
2022-11-27T17:31:42.778Z,13.23
2022-11-27T17:34:12.426Z,14.93
2022-11-27T17:36:41.912Z,9.07
2022-11-27T17:39:10.854Z,13.37
2022-11-27T17:41:39.712Z,12.17
2022-11-27T17:44:07.345Z,11.17
2022-11-27T17:46:34.758Z,10.57
2022-11-27T17:49:05.737Z,8.67
2022-11-27T17:51:35.828Z,10.60
2022-11-27T17:54:03.796Z,13.03
2022-11-27T17:56:32.142Z,10.30
2022-11-27T17:58:59.849Z,10.33
2022-11-27T18:01:28.990Z,13.60
2022-11-27T18:03:59.693Z,10.80
2022-11-27T18:06:27.545Z,12.10
2022-11-27T18:08:56.435Z,14.43
2022-11-27T18:11:26.084Z,13.77
2022-11-27T18:13:52.703Z,12.27
2022-11-27T18:16:28.930Z,12.43
2022-11-27T18:18:57.594Z,11.57
2022-11-27T18:21:27.005Z,10.37
2022-11-27T18:24:21.885Z,11.90
2022-11-27T18:29:27.684Z,12.17
2022-11-27T18:31:54.341Z,12.43
2022-11-27T18:34:21.030Z,12.13
2022-11-27T18:36:47.710Z,13.70
2022-11-27T18:39:14.385Z,12.87
2022-11-27T18:41:41.168Z,12.07
2022-11-27T18:44:08.586Z,10.87
2022-11-27T18:46:35.407Z,11.43
2022-11-27T18:49:05.611Z,12.30
2022-11-27T18:51:33.619Z,11.93
2022-11-27T18:54:00.210Z,13.30
2022-11-27T18:56:36.073Z,12.80
2022-11-27T18:59:05.906Z,13.20
2022-11-27T19:01:41.498Z,10.77
2022-11-27T19:04:11.829Z,16.67
2022-11-27T19:06:41.984Z,11.50
2022-11-27T19:09:10.925Z,13.50
2022-11-27T19:11:38.753Z,13.43
2022-11-27T19:14:06.304Z,11.03
2022-11-27T19:16:45.534Z,11.60
2022-11-27T19:19:52.193Z,11.60
2022-11-27T19:22:01.148Z,13.43
2022-11-27T19:24:28.183Z,12.53
2022-11-27T19:26:55.008Z,14.00
2022-11-27T19:29:21.774Z,11.57
2022-11-27T19:31:48.519Z,10.73
2022-11-27T19:34:15.155Z,14.10
2022-11-27T19:36:41.946Z,13.20
2022-11-27T19:39:14.031Z,11.83
2022-11-27T19:41:42.521Z,13.20
2022-11-27T19:44:11.219Z,10.50
2022-11-27T19:46:39.189Z,11.57
2022-11-27T19:49:16.993Z,11.73
2022-11-27T19:51:44.648Z,11.50
2022-11-27T19:54:13.924Z,12.23
2022-11-27T19:56:42.377Z,11.13
2022-11-27T19:59:10.735Z,11.40
2022-11-27T20:01:40.175Z,11.17
2022-11-27T20:04:07.839Z,12.67
2022-11-27T20:06:34.578Z,9.67
2022-11-27T20:09:03.979Z,10.50
2022-11-27T20:11:34.845Z,12.77
2022-11-27T20:14:04.728Z,11.83
2022-11-27T20:16:33.698Z,12.80
2022-11-27T20:19:02.104Z,13.03
2022-11-27T20:21:28.766Z,12.47
2022-11-27T20:23:57.022Z,11.30
2022-11-27T20:26:25.528Z,12.10
2022-11-27T20:28:53.395Z,11.00
2022-11-27T20:31:23.810Z,9.47
2022-11-27T20:33:51.836Z,12.10
2022-11-27T20:36:22.026Z,11.03
2022-11-27T20:38:50.057Z,12.23
2022-11-27T20:41:19.588Z,8.90
2022-11-27T20:43:50.651Z,11.63
2022-11-27T20:46:18.215Z,11.37
2022-11-27T20:48:46.747Z,11.47
2022-11-27T20:51:16.435Z,11.20
2022-11-27T20:53:45.494Z,11.57
2022-11-27T20:56:13.930Z,9.03
2022-11-27T20:58:42.456Z,11.57
2022-11-27T21:01:33.922Z,10.27
2022-11-27T21:04:04.322Z,12.13
2022-11-27T21:06:32.020Z,9.13
2022-11-27T21:09:03.868Z,15.43
2022-11-27T21:11:32.088Z,13.97
2022-11-27T21:14:02.494Z,12.37
2022-11-27T21:16:32.524Z,11.13
2022-11-27T21:19:03.343Z,17.93
2022-11-27T21:21:31.270Z,11.37
2022-11-27T21:23:59.720Z,9.80
2022-11-27T21:26:27.669Z,12.40
2022-11-27T21:28:54.660Z,12.40
2022-11-27T21:31:24.705Z,11.33
2022-11-27T21:34:03.869Z,11.53
2022-11-27T21:36:36.766Z,11.13
2022-11-27T21:39:07.924Z,12.33
2022-11-27T21:41:35.883Z,13.33
2022-11-27T21:44:03.755Z,12.40
2022-11-27T21:46:30.960Z,12.67
2022-11-27T21:49:00.097Z,11.70
2022-11-27T21:51:28.333Z,10.77
2022-11-27T21:53:57.945Z,13.13
2022-11-27T21:56:29.054Z,12.20
2022-11-27T21:58:56.283Z,11.73
2022-11-27T22:01:24.704Z,12.03
2022-11-27T22:03:54.103Z,12.57
2022-11-27T22:06:22.055Z,12.43
2022-11-27T22:08:50.071Z,13.43
2022-11-27T22:11:23.010Z,16.37
2022-11-27T22:13:49.956Z,11.80
2022-11-27T22:16:20.002Z,12.03
2022-11-27T22:18:48.275Z,9.83
2022-11-27T22:21:16.003Z,12.27
2022-11-27T22:23:43.590Z,12.70
2022-11-27T22:26:13.073Z,11.37
2022-11-27T22:28:42.739Z,11.70
2022-11-27T22:31:17.157Z,10.90
2022-11-27T22:33:44.985Z,9.63
2022-11-27T22:36:14.972Z,11.03
2022-11-27T22:38:42.916Z,11.53
2022-11-27T22:41:47.615Z,11.47
2022-11-27T22:44:20.875Z,14.57
2022-11-27T22:46:48.865Z,9.63
2022-11-27T22:49:17.756Z,13.80
2022-11-27T22:51:44.962Z,10.00
2022-11-27T22:54:15.115Z,11.03
2022-11-27T22:56:45.504Z,11.30
2022-11-27T23:02:00.003Z,11.27
2022-11-27T23:04:27.035Z,12.93
2022-11-27T23:06:53.909Z,11.20
2022-11-27T23:09:20.680Z,11.23
2022-11-27T23:11:47.422Z,13.50
2022-11-27T23:14:13.997Z,14.43
2022-11-27T23:16:40.639Z,8.67
2022-11-27T23:19:07.407Z,10.17
2022-11-27T23:21:37.266Z,10.50
2022-11-27T23:24:05.021Z,8.93
2022-11-27T23:26:32.204Z,10.43
2022-11-27T23:29:01.825Z,13.10
2022-11-27T23:31:35.679Z,13.73
2022-11-27T23:34:05.341Z,16.57
2022-11-27T23:36:32.822Z,14.30
2022-11-27T23:39:00.858Z,9.53
2022-11-27T23:41:27.812Z,10.77
2022-11-27T23:43:54.943Z,12.47
2022-11-27T23:46:25.180Z,14.27
2022-11-27T23:48:54.330Z,11.17
2022-11-27T23:51:25.793Z,9.50
2022-11-27T23:53:53.395Z,12.40
2022-11-27T23:56:26.718Z,11.03
2022-11-27T23:58:57.023Z,9.27
